METAR Data
IDs: Format: Raw Decoded Include TAF

Data at: 0240 UTC 15 Aug 2020

METAR for:KDMW (Carroll Cnty Rgnl, MD, US)
Text:KDMW 150235Z AUTO 00000KT 10SM SCT0 24/21 A3001 RMK AO2
Temperature: 24.0°C ( 75°F)
Dewpoint: 21.0°C ( 70°F) [RH = 83%]
Pressure (altimeter):30.01 inches Hg (1016.3 mb)
Winds:calm
Visibility:10 or more sm (16+ km)
QC Flag:automated observation with no human augmentation